createdAt,value
2018-08-16T00:00:24.099Z,17.50
2018-08-16T00:05:17.710Z,17.50
2018-08-16T00:10:15.001Z,17.50
2018-08-16T00:15:08.569Z,17.40
2018-08-16T00:20:01.828Z,17.40
2018-08-16T00:24:55.122Z,17.20
2018-08-16T00:29:48.402Z,17.40
2018-08-16T00:34:42.306Z,17.30
2018-08-16T00:39:35.579Z,17.30
2018-08-16T00:44:29.691Z,17.30
2018-08-16T00:49:23.065Z,17.20
2018-08-16T00:54:16.365Z,17.20
2018-08-16T00:59:09.621Z,17.30
2018-08-16T01:04:03.020Z,17.30
2018-08-16T01:08:57.344Z,17.30
2018-08-16T01:13:50.700Z,17.20
2018-08-16T01:18:43.997Z,17.00
2018-08-16T01:23:37.395Z,16.90
2018-08-16T01:28:30.667Z,16.80
2018-08-16T01:33:23.996Z,16.80
2018-08-16T01:38:17.272Z,16.70
2018-08-16T01:43:10.673Z,16.70
2018-08-16T01:48:04.000Z,16.80
2018-08-16T01:52:57.270Z,16.80
2018-08-16T01:57:50.528Z,16.70
2018-08-16T02:02:43.836Z,16.60
2018-08-16T02:07:38.484Z,16.50
2018-08-16T02:12:31.802Z,16.50
2018-08-16T02:17:25.040Z,16.60
2018-08-16T02:22:19.121Z,16.60
2018-08-16T02:27:12.901Z,16.60
2018-08-16T02:32:06.185Z,16.60
2018-08-16T02:36:59.458Z,16.50
2018-08-16T02:41:52.741Z,16.50
2018-08-16T02:46:46.022Z,16.50
2018-08-16T02:51:39.303Z,16.40
2018-08-16T02:56:32.592Z,16.30
2018-08-16T03:01:25.884Z,16.20
2018-08-16T03:06:19.144Z,16.10
2018-08-16T03:11:13.097Z,16.10
2018-08-16T03:16:07.204Z,16.00
2018-08-16T03:21:00.477Z,16.00
2018-08-16T03:25:53.762Z,16.00
2018-08-16T03:30:47.155Z,16.00
2018-08-16T03:35:40.370Z,16.00
2018-08-16T03:40:33.614Z,16.10
2018-08-16T03:45:27.662Z,16.10
2018-08-16T03:50:20.981Z,16.20
2018-08-16T03:55:14.730Z,16.00
2018-08-16T04:00:08.250Z,15.90
2018-08-16T04:05:01.580Z,15.90
2018-08-16T04:09:54.830Z,15.90
2018-08-16T04:14:48.053Z,15.80
2018-08-16T04:19:41.313Z,15.80
2018-08-16T04:24:34.568Z,15.70
2018-08-16T04:29:27.832Z,15.70
2018-08-16T04:34:21.115Z,15.70
2018-08-16T04:39:14.438Z,15.70
2018-08-16T04:44:07.728Z,15.70
2018-08-16T04:49:00.990Z,15.70
2018-08-16T04:53:54.270Z,15.80
2018-08-16T04:58:47.531Z,15.80
2018-08-16T05:03:41.231Z,15.90
2018-08-16T05:08:34.613Z,15.90
2018-08-16T05:13:28.183Z,16.00
2018-08-16T05:18:21.476Z,16.20
2018-08-16T05:23:14.884Z,16.30
2018-08-16T05:28:08.200Z,16.40
2018-08-16T05:33:02.292Z,16.60
2018-08-16T05:37:56.327Z,16.90
2018-08-16T05:42:49.677Z,17.50
2018-08-16T05:47:42.937Z,19.30
2018-08-16T05:52:36.187Z,21.10
2018-08-16T05:57:29.473Z,22.30
2018-08-16T06:02:22.792Z,22.90
2018-08-16T06:07:16.160Z,23.80
2018-08-16T06:12:09.435Z,24.50
2018-08-16T06:17:02.758Z,24.80
2018-08-16T06:21:56.297Z,26.20
2018-08-16T06:26:49.561Z,26.60
2018-08-16T06:31:42.912Z,27.20
2018-08-16T06:36:36.220Z,27.90
2018-08-16T06:41:29.493Z,28.00
2018-08-16T06:46:22.934Z,27.90
2018-08-16T06:51:16.103Z,28.00
2018-08-16T06:56:09.479Z,28.60
2018-08-16T07:01:03.077Z,29.10
2018-08-16T07:05:56.387Z,29.10
2018-08-16T07:10:49.700Z,29.40
2018-08-16T07:15:43.058Z,29.90
2018-08-16T07:20:36.293Z,29.90
2018-08-16T07:25:29.612Z,32.00
2018-08-16T07:30:22.884Z,31.20
2018-08-16T07:35:16.191Z,31.70
2018-08-16T07:40:10.241Z,32.30
2018-08-16T07:45:04.594Z,32.70
2018-08-16T07:49:57.982Z,32.90
2018-08-16T07:54:52.416Z,32.10
2018-08-16T07:59:45.706Z,32.20
2018-08-16T08:04:39.021Z,31.90
2018-08-16T08:09:32.522Z,33.00
2018-08-16T08:14:25.647Z,35.70
2018-08-16T08:19:18.910Z,34.70
2018-08-16T08:24:12.217Z,35.10
2018-08-16T08:29:05.550Z,35.50
2018-08-16T08:33:58.860Z,36.90
2018-08-16T08:38:52.183Z,36.70
2018-08-16T08:44:02.617Z,37.40
2018-08-16T08:48:56.713Z,38.00
2018-08-16T08:55:19.060Z,37.80
2018-08-16T09:00:12.458Z,35.90
2018-08-16T09:05:06.267Z,34.70
2018-08-16T09:11:17.159Z,35.10
2018-08-16T09:16:17.550Z,34.30
2018-08-16T09:21:11.498Z,34.70
2018-08-16T09:26:10.513Z,35.70
2018-08-16T09:31:21.893Z,36.20
2018-08-16T09:36:15.135Z,36.20
2018-08-16T09:41:08.442Z,36.80
2018-08-16T09:47:21.414Z,35.30
2018-08-16T09:52:15.289Z,34.00
2018-08-16T09:57:10.893Z,33.80
2018-08-16T10:02:06.671Z,34.20
2018-08-16T10:06:59.974Z,34.40
2018-08-16T10:11:54.134Z,34.00
2018-08-16T10:16:47.684Z,33.10
2018-08-16T10:21:41.107Z,32.60
2018-08-16T10:26:34.498Z,31.80
2018-08-16T10:31:27.813Z,30.70
2018-08-16T10:36:21.126Z,30.20
2018-08-16T10:41:14.445Z,29.90
2018-08-16T10:46:07.780Z,30.20
2018-08-16T10:51:01.656Z,30.60
2018-08-16T10:55:54.913Z,29.50
2018-08-16T11:00:48.177Z,29.40
2018-08-16T11:05:41.592Z,29.60
2018-08-16T11:10:34.875Z,29.80
2018-08-16T11:15:28.154Z,29.20
2018-08-16T11:20:22.395Z,29.20
2018-08-16T11:25:15.728Z,29.00
2018-08-16T11:30:10.120Z,28.80
2018-08-16T11:35:04.019Z,28.90
2018-08-16T11:39:57.336Z,29.60
2018-08-16T11:44:50.743Z,30.20
2018-08-16T11:49:43.995Z,30.40
2018-08-16T11:54:37.304Z,30.30
2018-08-16T11:59:31.208Z,30.20
2018-08-16T12:04:24.477Z,30.30
2018-08-16T12:09:18.701Z,30.40
2018-08-16T12:14:12.690Z,30.50
2018-08-16T12:19:06.295Z,30.10
2018-08-16T12:23:59.533Z,30.10
2018-08-16T12:28:52.854Z,30.30
2018-08-16T12:33:46.966Z,30.30
2018-08-16T12:38:40.344Z,30.50
2018-08-16T12:43:36.244Z,30.80
2018-08-16T12:48:29.570Z,31.10
2018-08-16T12:53:22.936Z,31.30
2018-08-16T12:58:16.566Z,31.30
2018-08-16T13:03:09.938Z,30.70
2018-08-16T13:08:03.281Z,30.40
2018-08-16T13:12:56.672Z,30.40
2018-08-16T13:17:49.966Z,30.90
2018-08-16T13:22:43.615Z,31.30
2018-08-16T13:27:37.766Z,31.20
2018-08-16T13:32:31.349Z,31.50
2018-08-16T13:37:24.717Z,31.20
2018-08-16T13:42:18.052Z,31.40
2018-08-16T13:47:12.400Z,31.50
2018-08-16T13:52:07.177Z,32.00
2018-08-16T13:57:00.446Z,32.30
2018-08-16T14:01:53.790Z,32.00
2018-08-16T14:06:47.217Z,32.10
2018-08-16T14:11:40.729Z,31.80
2018-08-16T14:16:34.048Z,31.60
2018-08-16T14:21:27.546Z,31.20
2018-08-16T14:26:21.497Z,31.10
2018-08-16T14:31:14.917Z,31.70
2018-08-16T14:36:08.308Z,31.80
2018-08-16T14:41:01.606Z,31.60
2018-08-16T14:45:54.833Z,31.80
2018-08-16T14:50:48.785Z,31.80
2018-08-16T14:55:42.000Z,32.00
2018-08-16T15:00:35.302Z,31.80
2018-08-16T15:05:28.552Z,31.30
2018-08-16T15:10:21.902Z,31.50
2018-08-16T15:15:15.174Z,31.90
2018-08-16T15:20:08.456Z,32.30
2018-08-16T15:25:01.741Z,32.10
2018-08-16T15:29:54.992Z,32.10
2018-08-16T15:34:48.224Z,32.10
2018-08-16T15:39:41.459Z,31.90
2018-08-16T15:44:34.707Z,31.80
2018-08-16T15:49:27.941Z,31.80
2018-08-16T15:54:21.315Z,31.50
2018-08-16T15:59:14.677Z,31.40
2018-08-16T16:04:07.945Z,31.20
2018-08-16T16:09:01.192Z,31.10
2018-08-16T16:13:55.297Z,31.00
2018-08-16T16:18:48.596Z,30.80
2018-08-16T16:23:41.871Z,30.50
2018-08-16T16:28:35.136Z,30.20
2018-08-16T16:33:28.402Z,30.20
2018-08-16T16:38:21.700Z,30.10
2018-08-16T16:43:16.209Z,29.90
2018-08-16T16:48:10.707Z,29.90
2018-08-16T16:53:04.027Z,29.80
2018-08-16T16:57:58.149Z,29.60
2018-08-16T17:02:51.459Z,29.40
2018-08-16T17:07:46.070Z,29.20
2018-08-16T17:12:39.645Z,28.90
2018-08-16T17:17:33.184Z,28.70
2018-08-16T17:22:26.492Z,28.50
2018-08-16T17:27:19.888Z,28.30
2018-08-16T17:32:13.162Z,28.10
2018-08-16T17:37:06.648Z,28.00
2018-08-16T17:41:59.975Z,27.90
2018-08-16T17:46:53.256Z,27.70
2018-08-16T17:51:46.534Z,27.50
2018-08-16T17:56:39.854Z,27.30
2018-08-16T18:01:33.109Z,27.10
2018-08-16T18:06:26.428Z,27.00
2018-08-16T18:11:19.758Z,26.80
2018-08-16T18:16:13.075Z,26.60
2018-08-16T18:21:06.334Z,26.50
2018-08-16T18:25:59.615Z,26.30
2018-08-16T18:30:52.900Z,26.20
2018-08-16T18:35:46.182Z,26.00
2018-08-16T18:40:39.455Z,25.80
2018-08-16T18:45:32.703Z,25.70
2018-08-16T18:50:25.979Z,25.60
2018-08-16T18:55:19.248Z,25.40
2018-08-16T19:00:12.534Z,25.30
2018-08-16T19:05:06.196Z,25.10
2018-08-16T19:09:59.495Z,25.00
2018-08-16T19:14:52.767Z,23.10
2018-08-16T19:19:46.071Z,24.70
2018-08-16T19:24:39.395Z,24.50
2018-08-16T19:29:32.748Z,24.40
2018-08-16T19:34:25.997Z,24.40
2018-08-16T19:39:19.244Z,24.20
2018-08-16T19:44:12.559Z,24.20
2018-08-16T19:49:06.099Z,24.10
2018-08-16T19:53:59.370Z,23.90
2018-08-16T19:58:52.678Z,23.80
2018-08-16T20:03:45.985Z,23.80
2018-08-16T20:08:39.297Z,23.80
2018-08-16T20:13:32.572Z,23.70
2018-08-16T20:18:25.813Z,23.50
2018-08-16T20:23:20.325Z,23.40
2018-08-16T20:28:13.678Z,23.40
2018-08-16T20:33:06.954Z,23.30
2018-08-16T20:38:00.286Z,23.20
2018-08-16T20:42:53.655Z,23.10
2018-08-16T20:47:46.977Z,23.00
2018-08-16T20:52:40.862Z,23.00
2018-08-16T20:57:34.260Z,22.80
2018-08-16T21:02:27.640Z,22.70
2018-08-16T21:07:21.116Z,22.60
2018-08-16T21:12:14.403Z,22.50
2018-08-16T21:17:07.724Z,22.40
2018-08-16T21:22:00.987Z,22.30
2018-08-16T21:26:54.298Z,22.30
2018-08-16T21:31:47.582Z,22.10
2018-08-16T21:36:40.855Z,22.10
2018-08-16T21:41:34.120Z,22.00
2018-08-16T21:46:27.357Z,22.00
2018-08-16T21:51:20.628Z,21.90
2018-08-16T21:56:13.882Z,21.80
2018-08-16T22:01:08.120Z,21.80
2018-08-16T22:06:07.531Z,21.70
2018-08-16T22:11:00.770Z,21.60
2018-08-16T22:15:54.132Z,21.50
2018-08-16T22:20:47.478Z,21.40
2018-08-16T22:25:41.303Z,21.30
2018-08-16T22:30:34.567Z,21.20
2018-08-16T22:35:27.957Z,21.00
2018-08-16T22:40:21.218Z,21.00
2018-08-16T22:45:14.501Z,21.00
2018-08-16T22:50:08.220Z,21.10
2018-08-16T22:55:01.604Z,21.10
2018-08-16T22:59:54.906Z,21.00
2018-08-16T23:04:48.126Z,20.90
2018-08-16T23:09:41.450Z,20.90
2018-08-16T23:14:34.759Z,20.80
2018-08-16T23:19:28.298Z,20.80
2018-08-16T23:24:21.568Z,20.70
2018-08-16T23:29:14.844Z,20.60
2018-08-16T23:34:08.116Z,20.60
2018-08-16T23:39:01.392Z,20.50
2018-08-16T23:43:54.687Z,20.30
2018-08-16T23:48:47.966Z,20.20
2018-08-16T23:53:41.215Z,20.10
2018-08-16T23:58:34.488Z,20.00
